Time;durP1;ratioP1;P1;durP2;ratioP2;P2;SDS_P1;SDS_P2;PMS_P1;PMS_P2;Temp;Humidity;BMP_temperature;BMP_pressure;BME280_temperature;BME280_humidity;BME280_pressure;Samples;Min_cycle;Max_cycle;Signal;HPM_P1;HPM_P2
2023/03/09 00:02:25;;;;;;;15.20;10.90;;;;;;;5.18;63.04;98969.25;5119451;28;20054;-60
2023/03/09 00:04:53;;;;;;;14.52;10.68;;;;;;;5.21;63.14;98975.94;5119285;28;20098;-60
2023/03/09 00:07:23;;;;;;;14.23;10.80;;;;;;;5.21;63.22;98966.09;5105698;28;20052;-60
2023/03/09 00:09:51;;;;;;;15.32;10.90;;;;;;;5.21;63.02;98966.09;5112956;28;20061;-60
2023/03/09 00:12:19;;;;;;;15.70;11.45;;;;;;;5.22;63.15;98977.56;5113614;28;20386;-60
2023/03/09 00:14:46;;;;;;;15.13;11.07;;;;;;;5.22;63.01;98967.69;5119047;28;20040;-60
2023/03/09 00:17:14;;;;;;;15.90;12.30;;;;;;;5.23;63.01;98965.84;5119982;28;20110;-59
2023/03/09 00:19:42;;;;;;;14.80;11.77;;;;;;;5.22;63.38;98970.38;5113483;28;20059;-60
2023/03/09 00:22:10;;;;;;;15.10;10.98;;;;;;;5.15;62.94;98944.94;5115571;28;20053;-59
2023/03/09 00:24:46;;;;;;;15.07;11.18;;;;;;;5.24;62.97;98914.22;5111765;28;20042;-60
2023/03/09 00:27:14;;;;;;;16.05;12.15;;;;;;;5.24;63.03;98954.97;5114917;28;20047;-60
2023/03/09 00:29:41;;;;;;;13.80;10.85;;;;;;;5.23;63.04;98971.19;5118005;28;20048;-60
2023/03/09 00:32:09;;;;;;;14.32;11.25;;;;;;;5.19;63.32;98992.16;5121653;28;20078;-60
2023/03/09 00:34:37;;;;;;;15.88;11.43;;;;;;;5.18;63.33;99024.34;5114235;28;20503;-60
2023/03/09 00:37:05;;;;;;;14.85;11.07;;;;;;;5.17;63.01;99025.41;5120818;28;20044;-59
2023/03/09 00:39:33;;;;;;;14.68;11.25;;;;;;;5.16;63.66;99013.13;5118258;28;20043;-60
2023/03/09 00:42:02;;;;;;;15.75;12.05;;;;;;;5.17;63.27;99014.75;5117325;28;20048;-61
2023/03/09 00:44:29;;;;;;;15.30;11.45;;;;;;;5.18;63.26;99017.19;5119025;28;20083;-61
2023/03/09 00:46:57;;;;;;;14.38;11.45;;;;;;;5.19;62.88;99018.78;5113459;28;20055;-58
2023/03/09 00:49:25;;;;;;;16.23;11.95;;;;;;;5.19;63.12;99026.78;5118892;28;20040;-61
2023/03/09 00:51:53;;;;;;;15.75;11.77;;;;;;;5.20;62.98;99024.94;5122092;28;20059;-61
2023/03/09 00:54:20;;;;;;;14.88;11.23;;;;;;;5.22;63.00;99022.81;5122638;28;20115;-61
2023/03/09 00:56:48;;;;;;;15.85;12.07;;;;;;;5.23;63.46;99025.25;5115632;28;20123;-61
2023/03/09 00:59:17;;;;;;;15.05;11.38;;;;;;;5.23;63.24;99037.75;5120398;28;20079;-61
2023/03/09 01:01:45;;;;;;;15.82;11.90;;;;;;;5.22;63.19;99038.78;5121194;28;20048;-61
2023/03/09 01:04:13;;;;;;;15.35;11.80;;;;;;;5.19;63.57;99048.09;5108628;28;20075;-61
2023/03/09 01:06:41;;;;;;;15.38;11.88;;;;;;;5.19;63.24;99055.28;5116860;28;20058;-60
2023/03/09 01:09:09;;;;;;;16.83;12.48;;;;;;;5.18;62.94;99057.13;5119536;28;20078;-60
2023/03/09 01:11:37;;;;;;;15.60;11.88;;;;;;;5.17;63.25;99073.31;5118835;28;20040;-60
2023/03/09 01:14:06;;;;;;;13.55;10.50;;;;;;;5.15;63.38;99086.06;5121965;28;20071;-60
2023/03/09 01:16:35;;;;;;;16.75;12.65;;;;;;;5.15;63.68;99097.53;5113523;27;20043;-60
2023/03/09 01:19:03;;;;;;;14.88;11.82;;;;;;;5.18;63.21;99107.72;5115997;28;20060;-60
2023/03/09 01:21:30;;;;;;;17.30;13.23;;;;;;;5.15;63.20;99104.69;5119509;28;20054;-59
2023/03/09 01:23:58;;;;;;;16.40;11.77;;;;;;;5.16;63.43;99106.31;5114026;28;20075;-61
2023/03/09 01:26:26;;;;;;;15.80;12.02;;;;;;;5.13;63.75;99104.94;5123645;28;20050;-61
2023/03/09 01:28:53;;;;;;;17.63;13.30;;;;;;;5.13;63.53;99109.44;5121920;28;20055;-61
2023/03/09 01:31:21;;;;;;;18.33;12.98;;;;;;;5.14;63.59;99111.88;5120342;28;20051;-61
2023/03/09 01:33:52;;;;;;;14.93;11.73;;;;;;;5.15;63.24;99118.00;5108448;28;20070;-61
2023/03/09 01:36:20;;;;;;;19.17;12.70;;;;;;;5.14;63.61;99130.50;5112098;28;20155;-60
2023/03/09 01:38:48;;;;;;;16.50;11.63;;;;;;;5.15;63.40;99137.47;5116060;28;20076;-61
2023/03/09 01:41:19;;;;;;;14.95;11.73;;;;;;;5.16;63.26;99140.94;5123115;28;20061;-60
2023/03/09 01:43:48;;;;;;;16.20;12.40;;;;;;;5.17;63.47;99140.72;5116744;28;20089;-61
2023/03/09 01:46:31;;;;;;;17.92;12.82;;;;;;;5.18;63.14;99145.00;5125428;28;20047;-60
2023/03/09 01:49:05;;;;;;;16.45;12.07;;;;;;;5.18;63.70;99147.66;5117275;28;20073;-60
2023/03/09 01:51:37;;;;;;;14.32;10.90;;;;;;;5.18;63.25;99134.34;5124875;28;20071;-60
2023/03/09 01:54:08;;;;;;;14.30;10.73;;;;;;;5.20;63.62;99131.44;5112261;28;20180;-60
2023/03/09 01:56:39;;;;;;;16.77;10.75;;;;;;;5.20;63.33;99128.78;5118581;28;20489;-60
2023/03/09 01:59:10;;;;;;;14.38;11.02;;;;;;;5.19;63.16;99137.81;5115366;28;20406;-60
2023/03/09 02:01:40;;;;;;;16.15;11.73;;;;;;;5.17;63.56;99156.69;5124558;28;20107;-61
2023/03/09 02:04:16;;;;;;;15.30;11.63;;;;;;;5.18;63.33;99157.50;5119400;28;20185;-61
2023/03/09 02:06:44;;;;;;;15.73;11.65;;;;;;;5.18;63.27;99160.16;5121516;28;20080;-61
2023/03/09 02:09:21;;;;;;;16.02;11.98;;;;;;;5.14;63.43;99154.47;5125200;28;20047;-60
2023/03/09 02:11:49;;;;;;;;;;;;;;;5.17;63.35;99166.53;5112714;28;20388;-60
2023/03/09 02:14:18;;;;;;;;;;;;;;;5.17;63.85;99167.34;5120395;27;19928;-60
2023/03/09 02:16:46;;;;;;;14.10;10.50;;;;;;;5.18;63.42;99168.97;5125702;28;19920;-60
2023/03/09 02:19:26;;;;;;;13.65;10.80;;;;;;;5.14;63.34;99156.34;5118423;28;20115;-59
2023/03/09 02:21:55;;;;;;;13.90;10.93;;;;;;;5.20;63.58;99169.50;5125653;28;20067;-60
2023/03/09 02:24:36;;;;;;;14.50;11.25;;;;;;;5.19;63.55;99156.47;5120599;28;20054;-60
2023/03/09 02:27:12;;;;;;;13.07;10.40;;;;;;;5.19;63.68;99159.94;5117186;28;20052;-61
2023/03/09 02:29:40;;;;;;;14.65;11.18;;;;;;;5.19;63.42;99145.81;5118948;28;20044;-60
2023/03/09 02:32:08;;;;;;;14.60;10.82;;;;;;;5.17;63.80;99159.34;5114320;28;20048;-60
2023/03/09 02:34:35;;;;;;;13.95;10.57;;;;;;;5.18;63.38;99168.16;5123812;28;20164;-60
2023/03/09 02:37:03;;;;;;;14.27;10.90;;;;;;;5.19;63.40;99175.09;5119019;28;20155;-60
2023/03/09 02:39:37;;;;;;;14.00;10.88;;;;;;;5.20;63.41;99179.38;5115451;28;20036;-60
2023/03/09 02:42:06;;;;;;;14.20;10.93;;;;;;;5.19;63.75;99175.09;5118770;28;20047;-61
2023/03/09 02:44:35;;;;;;;13.93;10.40;;;;;;;5.18;63.65;99179.63;5113017;28;20044;-61
2023/03/09 02:47:09;;;;;;;13.95;10.43;;;;;;;5.14;63.46;99185.63;5108914;28;20083;-60
2023/03/09 02:49:37;;;;;;;15.82;11.55;;;;;;;5.16;63.64;99192.34;5114333;28;20123;-61
2023/03/09 02:52:05;;;;;;;12.32;10.13;;;;;;;5.16;63.49;99188.88;5107845;28;20055;-61
2023/03/09 02:54:33;;;;;;;14.85;11.20;;;;;;;5.17;63.50;99193.97;5119022;28;20127;-61
2023/03/09 02:57:01;;;;;;;14.80;11.00;;;;;;;5.16;63.45;99194.19;5116836;27;20058;-60
2023/03/09 02:59:29;;;;;;;13.98;10.82;;;;;;;5.17;63.97;99193.16;5120484;28;20114;-61
2023/03/09 03:01:58;;;;;;;14.68;10.85;;;;;;;5.15;64.04;99198.72;5121286;28;20135;-61
2023/03/09 03:04:26;;;;;;;15.20;11.85;;;;;;;5.15;63.82;99184.59;5122526;28;20075;-60
2023/03/09 03:06:53;;;;;;;15.35;11.05;;;;;;;5.13;63.84;99182.16;5110115;27;20113;-60
2023/03/09 03:09:21;;;;;;;14.60;10.98;;;;;;;5.14;64.10;99180.28;5116862;28;20047;-60
2023/03/09 03:11:49;;;;;;;13.88;10.38;;;;;;;5.15;63.58;99181.91;5110801;28;20050;-60
2023/03/09 03:14:17;;;;;;;15.77;12.10;;;;;;;5.13;63.66;99190.13;5113617;28;20048;-60
2023/03/09 03:16:44;;;;;;;14.02;10.75;;;;;;;5.14;63.77;99193.63;5122062;28;20046;-61
2023/03/09 03:19:14;;;;;;;15.23;11.38;;;;;;;5.13;64.06;99206.13;5111007;28;20056;-60
2023/03/09 03:21:41;;;;;;;15.35;12.02;;;;;;;5.12;63.56;99201.00;5111921;28;20630;-61
2023/03/09 03:24:09;;;;;;;17.77;12.90;;;;;;;5.10;63.93;99208.41;5122630;28;20130;-60
2023/03/09 03:26:37;;;;;;;16.00;12.50;;;;;;;5.09;63.82;99218.25;5117157;27;20058;-60
2023/03/09 03:29:05;;;;;;;18.30;13.07;;;;;;;5.09;64.10;99218.25;5117592;28;20071;-60
2023/03/09 03:31:32;;;;;;;15.15;11.50;;;;;;;5.10;63.94;99230.53;5122445;28;20052;-60
2023/03/09 03:34:00;;;;;;;16.55;12.63;;;;;;;5.12;63.55;99219.66;5118122;28;20058;-60
2023/03/09 03:36:30;;;;;;;14.88;11.95;;;;;;;5.10;63.76;99230.53;5121102;28;20103;-61
2023/03/09 03:38:57;;;;;;;16.00;12.20;;;;;;;5.10;63.94;99249.16;5123504;28;20047;-60
2023/03/09 03:41:25;;;;;;;17.80;12.27;;;;;;;5.08;63.64;99253.09;5116892;28;20055;-60
2023/03/09 03:43:53;;;;;;;19.33;14.30;;;;;;;5.06;63.59;99255.97;5115614;28;20150;-60
2023/03/09 03:46:20;;;;;;;16.75;12.52;;;;;;;5.06;63.91;99265.81;5115310;28;20079;-60
2023/03/09 03:48:48;;;;;;;18.42;12.73;;;;;;;5.05;63.66;99259.69;5122402;28;20487;-60
2023/03/09 03:51:16;;;;;;;16.38;12.82;;;;;;;5.05;64.10;99259.69;5118001;28;20440;-60
2023/03/09 03:53:45;;;;;;;18.00;14.35;;;;;;;5.04;63.96;99266.03;5115362;28;20059;-60
2023/03/09 03:56:13;;;;;;;18.63;13.80;;;;;;;5.03;64.00;99263.59;5114412;28;20066;-60
2023/03/09 03:58:41;;;;;;;20.00;13.85;;;;;;;5.04;63.84;99275.88;5119805;27;20075;-60
2023/03/09 04:01:08;;;;;;;18.50;13.05;;;;;;;5.06;64.07;99268.47;5120483;28;20508;-60
2023/03/09 04:03:36;;;;;;;18.92;13.25;;;;;;;5.06;64.06;99271.16;5119437;28;20127;-61
2023/03/09 04:06:04;;;;;;;20.02;13.68;;;;;;;5.03;63.92;99266.28;5121383;28;20058;-60
2023/03/09 04:08:32;;;;;;;18.58;13.75;;;;;;;5.06;64.28;99271.97;5123031;28;20097;-61
2023/03/09 04:11:05;;;;;;;19.00;14.05;;;;;;;5.06;63.97;99277.28;5123088;28;20115;-61
2023/03/09 04:13:33;;;;;;;20.95;15.02;;;;;;;5.06;64.24;99273.81;5114388;28;20492;-61
2023/03/09 04:16:01;;;;;;;21.42;14.93;;;;;;;5.06;64.07;99279.13;5118952;28;20062;-60
2023/03/09 04:18:29;;;;;;;19.00;13.52;;;;;;;5.06;64.13;99287.94;5117162;28;20053;-61
2023/03/09 04:20:57;;;;;;;21.77;15.65;;;;;;;5.05;63.89;99291.63;5109523;28;20049;-59
2023/03/09 04:23:24;;;;;;;23.60;15.27;;;;;;;5.04;64.02;99281.22;5112075;28;20126;-60
2023/03/09 04:25:56;;;;;;;23.63;16.13;;;;;;;5.05;64.32;99296.97;5117584;28;20043;-60
2023/03/09 04:28:25;;;;;;;20.67;15.63;;;;;;;5.07;63.87;99304.72;5111871;28;20491;-60
2023/03/09 04:30:54;;;;;;;22.67;15.13;;;;;;;5.06;64.40;99311.09;5116790;28;20047;-60
2023/03/09 04:33:22;;;;;;;20.00;15.07;;;;;;;5.03;64.02;99312.34;5110177;28;20051;-60
2023/03/09 04:35:49;;;;;;;22.15;15.57;;;;;;;5.03;64.06;99306.22;5122764;28;20054;-61
2023/03/09 04:38:17;;;;;;;25.17;17.10;;;;;;;5.02;63.86;99313.38;5121253;28;20051;-60
2023/03/09 04:40:45;;;;;;;23.63;15.98;;;;;;;5.01;64.31;99310.94;5114418;28;20063;-61
2023/03/09 04:43:13;;;;;;;26.05;16.90;;;;;;;5.02;64.30;99317.88;5120677;28;20134;-61
2023/03/09 04:45:42;;;;;;;22.00;15.85;;;;;;;5.02;63.84;99324.03;5117698;28;20044;-60
2023/03/09 04:48:10;;;;;;;26.13;17.05;;;;;;;5.01;64.07;99317.06;5116480;28;20058;-59
2023/03/09 04:50:37;;;;;;;23.48;17.48;;;;;;;5.01;63.87;99327.72;5122994;28;20039;-60
2023/03/09 04:53:05;;;;;;;25.90;18.27;;;;;;;5.02;64.16;99331.19;5121685;28;20127;-60
2023/03/09 04:55:35;;;;;;;25.02;16.30;;;;;;;5.02;63.89;99339.19;5118260;27;20052;-60
2023/03/09 04:58:03;;;;;;;22.63;15.73;;;;;;;4.98;64.34;99340.66;5114779;28;20048;-60
2023/03/09 05:00:32;;;;;;;24.20;17.52;;;;;;;4.99;64.37;99336.97;5123257;28;20082;-61
2023/03/09 05:03:01;;;;;;;24.80;16.98;;;;;;;5.00;64.31;99346.59;5121191;27;20083;-61
2023/03/09 05:05:29;;;;;;;24.25;16.77;;;;;;;5.00;64.20;99355.38;5109626;28;20760;-59
2023/03/09 05:07:56;;;;;;;27.75;18.35;;;;;;;5.01;63.88;99361.53;5111730;28;20043;-59
2023/03/09 05:10:24;;;;;;;24.98;17.65;;;;;;;4.99;64.20;99371.59;5116220;28;20086;-60
2023/03/09 05:12:52;;;;;;;26.85;18.30;;;;;;;4.98;64.61;99361.97;5112063;28;20108;-60
2023/03/09 05:15:19;;;;;;;27.17;18.77;;;;;;;4.97;64.36;99363.81;5126007;28;20052;-60
2023/03/09 05:17:47;;;;;;;26.80;18.08;;;;;;;4.97;64.04;99371.00;5117081;28;20046;-61
2023/03/09 05:20:17;;;;;;;26.17;17.45;;;;;;;5.00;64.33;99382.00;5120942;27;20073;-61
2023/03/09 05:22:45;;;;;;;28.23;18.27;;;;;;;4.99;64.26;99383.03;5124729;28;20547;-61
2023/03/09 05:25:13;;;;;;;24.13;17.67;;;;;;;4.98;64.11;99397.38;5126258;28;20044;-60
2023/03/09 05:27:41;;;;;;;23.05;16.45;;;;;;;4.98;64.35;99378.75;5115883;28;20075;-61
2023/03/09 05:30:10;;;;;;;27.77;17.85;;;;;;;4.98;64.63;99391.25;5121537;28;20048;-61
2023/03/09 05:32:38;;;;;;;27.95;17.77;;;;;;;4.97;64.68;99387.78;5116928;28;20090;-61
2023/03/09 05:35:07;;;;;;;26.70;17.35;;;;;;;4.96;64.44;99394.13;5124388;28;20163;-61
2023/03/09 05:37:36;;;;;;;27.17;18.60;;;;;;;4.96;64.33;99396.78;5118148;28;20067;-60
2023/03/09 05:40:05;;;;;;;30.63;19.52;;;;;;;4.95;64.12;99400.50;5124784;28;20071;-60
2023/03/09 05:42:33;;;;;;;26.67;18.58;;;;;;;4.89;64.15;99391.53;5119044;28;20073;-60
2023/03/09 05:45:03;;;;;;;27.92;18.15;;;;;;;4.92;64.27;99403.59;5122842;28;20043;-60
2023/03/09 05:47:31;;;;;;;27.92;19.30;;;;;;;4.93;64.26;99407.06;5121671;28;20055;-60
2023/03/09 05:49:58;;;;;;;29.52;19.63;;;;;;;4.94;64.30;99404.19;5124361;28;20044;-60
2023/03/09 05:52:26;;;;;;;28.02;19.98;;;;;;;4.94;64.47;99420.16;5125155;28;20575;-60
2023/03/09 05:54:55;;;;;;;29.13;18.80;;;;;;;4.94;64.61;99422.00;5116587;27;20040;-60
2023/03/09 05:57:23;;;;;;;26.45;18.65;;;;;;;4.94;64.73;99414.03;5114884;28;20596;-60
2023/03/09 05:59:51;;;;;;;29.55;18.88;;;;;;;4.94;64.63;99414.84;5122028;28;20102;-61
2023/03/09 06:02:18;;;;;;;26.27;17.30;;;;;;;4.95;64.23;99408.47;5114694;27;20048;-59
2023/03/09 06:04:50;;;;;;;29.38;20.25;;;;;;;4.98;64.58;99399.25;5121831;28;20093;-60
2023/03/09 06:07:18;;;;;;;26.67;18.27;;;;;;;4.98;64.15;99409.88;5116268;28;20048;-60
2023/03/09 06:09:46;;;;;;;30.23;19.77;;;;;;;4.99;64.54;99412.34;5115532;28;20356;-61
2023/03/09 06:12:17;;;;;;;27.23;18.30;;;;;;;5.03;63.92;99407.38;5122600;28;20052;-60
2023/03/09 06:14:48;;;;;;;29.80;19.35;;;;;;;5.22;63.62;99416.97;5116615;28;20044;-61
2023/03/09 06:17:16;;;;;;;29.23;18.23;;;;;;;5.39;63.16;99427.84;5109099;28;20487;-61
2023/03/09 06:19:45;;;;;;;25.88;18.35;;;;;;;5.55;62.54;99427.25;5113491;28;20047;-61
2023/03/09 06:22:13;;;;;;;27.52;18.00;;;;;;;5.72;61.96;99430.91;5117329;27;20042;-64
2023/03/09 06:24:42;;;;;;;26.67;18.10;;;;;;;5.87;61.38;99439.34;5121181;28;20043;-60
2023/03/09 06:27:09;;;;;;;25.20;16.73;;;;;;;6.05;60.96;99438.50;5111432;28;20060;-61
2023/03/09 06:29:38;;;;;;;27.13;18.90;;;;;;;6.10;60.75;99437.81;5118555;28;20577;-60
2023/03/09 06:32:06;;;;;;;24.48;17.23;;;;;;;6.06;61.09;99440.13;5114368;28;20693;-59
2023/03/09 06:34:34;;;;;;;24.83;17.00;;;;;;;5.97;61.29;99448.66;4764085;28;9999693;-62
2023/03/09 06:37:02;;;;;;;26.02;18.02;;;;;;;5.83;61.74;99456.81;5118597;28;20455;-63
2023/03/09 06:39:31;;;;;;;25.40;18.27;;;;;;;5.76;61.83;99455.28;5106402;28;20052;-60
2023/03/09 06:41:59;;;;;;;25.10;17.50;;;;;;;5.66;62.10;99453.13;5111337;28;20139;-60
2023/03/09 06:44:26;;;;;;;25.25;17.80;;;;;;;5.61;62.45;99457.50;5116060;28;20086;-59
2023/03/09 06:46:55;;;;;;;31.42;19.40;;;;;;;5.56;62.91;99466.16;5120591;28;20587;-59
2023/03/09 06:49:23;;;;;;;28.08;18.00;;;;;;;5.51;62.72;99476.69;5120577;28;20107;-59
2023/03/09 06:51:51;;;;;;;26.08;18.77;;;;;;;5.46;62.88;99489.88;5118173;28;20052;-59
2023/03/09 06:54:19;;;;;;;27.35;18.35;;;;;;;5.44;63.09;99491.94;5118240;28;20303;-59
2023/03/09 06:56:46;;;;;;;26.00;17.02;;;;;;;5.39;63.12;99489.94;5108802;28;20125;-60
2023/03/09 06:59:14;;;;;;;28.15;18.95;;;;;;;5.35;63.61;99487.94;5106448;28;20106;-60
2023/03/09 07:01:42;;;;;;;30.08;19.77;;;;;;;5.34;63.32;99497.78;5118137;28;20131;-59
2023/03/09 07:04:11;;;;;;;30.20;19.77;;;;;;;5.32;63.27;99509.69;5102260;28;20052;-59
2023/03/09 07:06:39;;;;;;;28.02;18.77;;;;;;;5.28;63.31;99519.16;5116197;28;20533;-59
2023/03/09 07:09:08;;;;;;;28.83;19.27;;;;;;;5.26;63.49;99519.38;5115457;27;20062;-61
2023/03/09 07:11:35;;;;;;;29.45;19.58;;;;;;;5.20;64.12;99521.06;5119116;28;20143;-60
2023/03/09 07:14:03;;;;;;;31.10;19.90;;;;;;;5.16;64.33;99530.56;5123798;28;20055;-59
2023/03/09 07:16:31;;;;;;;29.40;20.02;;;;;;;5.16;64.44;99532.41;5117738;28;20063;-60
2023/03/09 07:18:59;;;;;;;30.33;19.27;;;;;;;5.16;64.07;99537.72;5120874;28;20451;-59
2023/03/09 07:21:28;;;;;;;29.52;19.83;;;;;;;5.16;64.53;99548.38;5123785;28;20050;-60
2023/03/09 07:23:58;;;;;;;31.52;20.73;;;;;;;5.15;63.99;99552.88;5110606;28;20119;-60
2023/03/09 07:26:27;;;;;;;34.67;21.50;;;;;;;5.14;64.40;99555.78;5124480;28;20054;-58
2023/03/09 07:28:54;;;;;;;30.85;20.13;;;;;;;5.14;63.97;99561.09;5116369;28;20051;-59
2023/03/09 07:31:22;;;;;;;32.92;20.92;;;;;;;5.12;64.07;99558.66;5122219;28;20067;-59
2023/03/09 07:33:50;;;;;;;29.13;19.63;;;;;;;5.10;64.09;99568.72;5110064;28;20078;-59
2023/03/09 07:36:18;;;;;;;32.85;20.55;;;;;;;5.08;64.46;99584.09;5124217;28;20058;-59
2023/03/09 07:38:47;;;;;;;37.40;21.20;;;;;;;5.07;64.10;99584.31;5123415;28;20040;-59
2023/03/09 07:41:15;;;;;;;29.98;19.42;;;;;;;5.03;64.50;99597.22;5123416;28;20051;-59
2023/03/09 07:43:44;;;;;;;30.58;19.73;;;;;;;5.04;64.05;99598.06;5116070;28;20044;-59
2023/03/09 07:46:13;;;;;;;30.98;20.90;;;;;;;5.05;63.95;99600.50;5123358;28;20057;-59
2023/03/09 07:48:42;;;;;;;31.88;20.98;;;;;;;5.08;64.11;99600.06;5122713;28;20129;-60
2023/03/09 07:51:10;;;;;;;33.35;21.02;;;;;;;5.06;64.19;99602.13;5117332;28;20504;-59
2023/03/09 07:53:40;;;;;;;37.08;22.15;;;;;;;5.07;64.49;99611.75;5121353;28;20062;-60
2023/03/09 07:56:09;;;;;;;34.13;22.33;;;;;;;5.07;64.71;99616.25;5121335;28;20074;-59
2023/03/09 07:58:39;;;;;;;33.28;20.75;;;;;;;5.08;64.24;99612.56;5109179;28;20050;-60
2023/03/09 08:01:12;;;;;;;35.38;22.48;;;;;;;5.07;64.65;99613.59;5121956;28;20047;-57
2023/03/09 08:03:40;;;;;;;31.15;20.85;;;;;;;5.08;64.71;99624.03;5132284;27;20057;-58
2023/03/09 08:06:09;;;;;;;33.80;20.13;;;;;;;5.11;64.71;99620.94;5127885;27;20107;-61
2023/03/09 08:08:37;;;;;;;32.13;20.65;;;;;;;5.11;64.74;99622.78;5109423;28;20063;-59
2023/03/09 08:11:05;;;;;;;33.78;21.55;;;;;;;5.13;64.58;99631.38;5122240;28;20054;-59
2023/03/09 08:13:35;;;;;;;35.47;21.48;;;;;;;5.12;64.63;99627.06;5114526;28;20104;-59
2023/03/09 08:16:05;;;;;;;33.50;21.60;;;;;;;5.12;64.34;99637.72;5116528;28;20047;-58
2023/03/09 08:18:33;;;;;;;33.90;22.30;;;;;;;5.12;64.60;99632.41;5122254;28;20067;-59
2023/03/09 08:21:05;;;;;;;31.58;21.02;;;;;;;5.13;64.64;99639.34;5118091;28;20267;-59
2023/03/09 08:23:34;;;;;;;35.83;23.40;;;;;;;5.13;64.63;99632.19;5123338;28;20051;-59
2023/03/09 08:26:02;;;;;;;31.25;21.10;;;;;;;5.13;64.52;99629.53;5123242;28;20047;-59
2023/03/09 08:28:30;;;;;;;35.75;21.38;;;;;;;5.12;64.78;99632.41;5120008;28;20135;-60
2023/03/09 08:31:00;;;;;;;34.45;21.13;;;;;;;5.12;64.42;99646.53;5122850;28;20051;-59
2023/03/09 08:33:28;;;;;;;33.60;21.83;;;;;;;5.11;64.38;99655.56;5121894;28;20374;-60
2023/03/09 08:35:55;;;;;;;32.60;20.50;;;;;;;5.14;64.70;99667.63;5109036;28;20077;-60
2023/03/09 08:38:23;;;;;;;32.97;22.05;;;;;;;5.13;64.32;99669.47;5122570;28;20111;-60
2023/03/09 08:40:51;;;;;;;34.83;22.55;;;;;;;5.14;64.56;99676.44;5116923;28;20039;-60
2023/03/09 08:43:19;;;;;;;36.88;22.90;;;;;;;5.15;64.74;99678.06;5112140;28;20183;-60
2023/03/09 08:45:47;;;;;;;39.22;23.05;;;;;;;5.16;64.67;99673.53;5122613;28;20061;-60
2023/03/09 08:48:16;;;;;;;35.22;23.00;;;;;;;5.15;64.81;99672.72;5115765;28;20043;-60
2023/03/09 08:50:44;;;;;;;38.15;22.70;;;;;;;5.13;64.85;99685.44;5109893;28;20131;-60
2023/03/09 08:53:11;;;;;;;36.08;23.42;;;;;;;5.13;64.51;99698.75;5118496;28;20376;-60
2023/03/09 08:55:39;;;;;;;38.92;22.70;;;;;;;5.13;64.65;99700.59;5109261;28;20055;-59
2023/03/09 08:58:07;;;;;;;36.45;23.17;;;;;;;5.12;64.78;99715.78;5107177;28;20411;-60
2023/03/09 09:00:35;;;;;;;36.53;22.35;;;;;;;5.11;65.09;99715.97;5123227;28;20075;-59
2023/03/09 09:03:03;;;;;;;38.00;23.48;;;;;;;5.18;64.69;99711.44;5107841;28;20112;-60
2023/03/09 09:05:32;;;;;;;36.20;24.15;;;;;;;5.32;64.04;99709.47;5113281;28;20048;-59
2023/03/09 09:08:00;;;;;;;37.83;22.42;;;;;;;5.52;63.62;99710.16;5120254;28;20090;-59
2023/03/09 09:10:28;;;;;;;35.33;23.58;;;;;;;5.70;63.24;99702.22;5115673;28;20497;-60
2023/03/09 09:13:03;;;;;;;39.05;22.77;;;;;;;5.86;62.62;99717.66;5121769;28;20048;-60
2023/03/09 09:15:31;;;;;;;36.63;22.50;;;;;;;5.89;62.31;99735.09;5123024;28;20051;-60
2023/03/09 09:17:59;;;;;;;36.45;23.27;;;;;;;5.89;62.49;99729.75;5112570;28;20120;-60
2023/03/09 09:20:27;;;;;;;34.72;22.20;;;;;;;5.84;62.39;99726.91;5122847;28;20083;-60
2023/03/09 09:22:56;;;;;;;40.30;24.58;;;;;;;5.77;62.97;99726.16;5116697;28;20138;-59
2023/03/09 09:25:24;;;;;;;35.47;23.23;;;;;;;5.70;63.04;99712.88;5108113;28;20048;-60
2023/03/09 09:27:52;;;;;;;40.95;24.63;;;;;;;5.67;63.20;99712.50;5106142;28;20130;-60
2023/03/09 09:30:19;;;;;;;36.40;23.58;;;;;;;5.61;63.40;99732.84;5122683;28;20051;-60
2023/03/09 09:32:48;;;;;;;37.58;24.10;;;;;;;5.57;63.62;99737.78;5114575;28;20175;-60
2023/03/09 09:35:16;;;;;;;36.03;22.77;;;;;;;5.54;63.75;99748.06;5106024;28;20530;-60
2023/03/09 09:37:43;;;;;;;37.28;23.27;;;;;;;5.51;63.69;99754.63;5111674;28;20071;-60
2023/03/09 09:40:15;;;;;;;37.33;23.42;;;;;;;5.51;64.16;99759.13;5126020;28;20059;-59
2023/03/09 09:42:44;;;;;;;34.47;23.25;;;;;;;5.50;64.29;99757.50;5124259;28;20071;-59
2023/03/09 09:45:26;;;;;;;35.58;23.30;;;;;;;5.46;64.18;99746.47;5111833;27;20048;-60
2023/03/09 09:47:56;;;;;;;38.28;23.95;;;;;;;5.45;64.35;99742.16;5112944;28;20123;-60
2023/03/09 09:50:32;;;;;;;41.33;24.65;;;;;;;5.44;64.54;99739.72;5124543;27;20108;-60
2023/03/09 09:53:04;;;;;;;41.95;25.02;;;;;;;5.43;64.74;99754.88;5120895;28;20174;-59
2023/03/09 09:55:38;;;;;;;37.92;23.83;;;;;;;5.44;64.86;99759.19;5123629;28;20119;-60
2023/03/09 09:58:15;;;;;;;42.47;24.02;;;;;;;5.43;64.58;99751.41;5111627;28;20058;-59
2023/03/09 10:00:47;;;;;;;37.88;23.98;;;;;;;5.42;64.61;99752.44;5116963;28;20055;-61
2023/03/09 10:03:21;;;;;;;40.47;24.90;;;;;;;5.38;64.79;99746.72;5113522;27;20051;-60
2023/03/09 10:05:52;;;;;;;39.25;23.63;;;;;;;5.39;64.64;99747.53;5125993;28;20052;-60
2023/03/09 10:08:26;;;;;;;37.65;24.25;;;;;;;5.39;64.81;99734.22;5124692;28;20100;-60
2023/03/09 10:11:00;;;;;;;37.72;24.08;;;;;;;5.38;64.93;99741.41;5123709;28;20141;-59
2023/03/09 10:13:33;;;;;;;37.35;23.92;;;;;;;5.39;65.12;99744.88;5124769;28;20055;-59
2023/03/09 10:16:06;;;;;;;36.08;23.23;;;;;;;5.38;64.75;99737.91;5125804;28;20425;-59
2023/03/09 10:18:40;;;;;;;37.30;22.23;;;;;;;5.37;64.94;99737.09;5116439;27;20119;-60
2023/03/09 10:21:18;;;;;;;36.67;22.08;;;;;;;5.38;65.00;99741.41;5121774;28;20108;-60
2023/03/09 10:23:47;;;;;;;34.03;22.90;;;;;;;5.39;65.15;99727.03;5125377;28;20058;-59
2023/03/09 10:26:33;;;;;;;36.92;22.50;;;;;;;5.40;64.74;99730.53;5125437;28;20039;-60
2023/03/09 10:29:06;;;;;;;36.38;23.58;;;;;;;5.39;65.22;99744.88;5121709;27;20039;-61
2023/03/09 10:31:40;;;;;;;37.78;22.58;;;;;;;5.41;65.26;99746.28;5105061;28;20068;-60
2023/03/09 10:34:16;;;;;;;37.67;23.00;;;;;;;5.43;64.82;99746.91;5109729;28;20043;-59
2023/03/09 10:36:59;;;;;;;36.03;22.67;;;;;;;5.42;65.45;99747.94;5114080;28;20058;-60
2023/03/09 10:39:30;;;;;;;36.65;22.73;;;;;;;5.44;65.33;99753.84;5111757;28;20051;-60
2023/03/09 10:42:03;;;;;;;38.53;23.75;;;;;;;5.43;65.00;99746.91;5119189;28;20389;-60
2023/03/09 10:44:32;;;;;;;41.17;24.17;;;;;;;5.43;65.34;99751.41;5112207;28;20118;-60
2023/03/09 10:47:02;;;;;;;36.30;21.88;;;;;;;5.44;65.65;99745.88;5120945;28;20048;-59
2023/03/09 10:49:31;;;;;;;40.25;24.40;;;;;;;5.46;65.29;99748.31;5111818;28;20097;-59
2023/03/09 10:52:02;;;;;;;36.40;23.40;;;;;;;5.47;65.26;99744.63;5112759;28;20070;-61
2023/03/09 10:54:35;;;;;;;35.50;21.52;;;;;;;5.48;65.47;99748.91;5116518;27;20151;-60
2023/03/09 10:57:22;;;;;;;33.80;21.95;;;;;;;5.49;65.68;99747.88;5118320;28;20067;-60
2023/03/09 11:00:05;;;;;;;38.80;22.67;;;;;;;5.49;65.49;99747.88;5116457;28;20043;-60
2023/03/09 11:02:36;;;;;;;36.40;23.50;;;;;;;5.50;65.78;99746.84;5102956;28;20052;-58
2023/03/09 11:05:14;;;;;;;38.47;24.90;;;;;;;5.51;65.79;99748.47;5110285;27;20061;-58
2023/03/09 11:07:42;;;;;;;37.03;22.75;;;;;;;5.52;65.46;99748.28;5124223;28;20131;-59
2023/03/09 11:10:23;;;;;;;32.40;21.02;;;;;;;5.53;65.36;99751.75;5122257;28;20107;-59
2023/03/09 11:12:54;;;;;;;37.08;22.75;;;;;;;5.53;65.57;99751.75;5114133;28;20054;-60
2023/03/09 11:15:28;;;;;;;42.15;23.08;;;;;;;5.55;65.49;99760.34;5124358;28;20047;-60
2023/03/09 11:17:57;;;;;;;36.40;21.52;;;;;;;5.57;65.47;99758.28;5120378;28;20043;-59
2023/03/09 11:20:32;;;;;;;36.67;22.20;;;;;;;5.59;65.37;99758.06;5124244;28;20135;-60
2023/03/09 11:23:08;;;;;;;36.53;21.83;;;;;;;5.61;65.58;99753.34;5123747;28;20059;-59
2023/03/09 11:25:52;;;;;;;38.67;23.85;;;;;;;5.61;65.52;99748.81;5122635;28;20120;-59
2023/03/09 11:28:30;;;;;;;34.80;21.85;;;;;;;5.61;65.54;99748.00;5112090;28;20043;-61
2023/03/09 11:31:00;;;;;;;36.63;22.05;;;;;;;5.62;65.70;99752.31;5105041;28;20059;-60
2023/03/09 11:33:30;;;;;;;36.03;21.73;;;;;;;5.63;65.62;99748.59;5104367;28;20050;-59
2023/03/09 11:35:59;;;;;;;37.30;22.05;;;;;;;5.64;65.20;99747.56;5122664;28;20531;-59
2023/03/09 11:38:30;;;;;;;32.03;20.85;;;;;;;5.64;65.47;99744.91;5123734;28;20423;-60